Dream Island — 3EWU7 — position and weather

sailwx.info

Track history (hours):
 
Tides and Currents Weather Stations Pressure Air Temp Water Temp Dewpoint Dewpoint Depression Visibility Wind Speed Wind Dir Waves Ship Positions

Dream Island

Last reported at 2018-Feb-21 21:21 UTC. Time now 2018-Feb-23 00:51 UTC.
Position N 48°31' W 126°32'.

Length 180 m; draft 10.1 m.

Type: Cargo ship. MMSI: 374721000.

Date/timePositionNaut miles runAvg speedWind from/ knotsBaromVisibWave heightAir tempDewpointWater temp
2018-Feb-21 21:21N 48°31' W 126°32'410.3
2018-Feb-21 21:00N 48°31' W 126°27'510.1
2018-Feb-21 20:30N 48°31' W 126°19'5 9.5
2018-Feb-21 20:00N 48°31' W 126°12'5 9.9
2018-Feb-21 19:30N 48°32' W 126°05'510.1
2018-Feb-21 19:00N 48°31' W 125°57'510.2
2018-Feb-21 18:30N 48°31' W 125°49'510.3
2018-Feb-21 18:00N 48°31' W 125°42'510.7
2018-Feb-21 17:30N 48°31' W 125°34'510.7
2018-Feb-21 17:00N 48°31' W 125°25'510.6
2018-Feb-21 16:30N 48°31' W 125°17'510.2
2018-Feb-21 16:00N 48°31' W 125°10'510.1
2018-Feb-21 15:30N 48°31' W 125°02'510.9
2018-Feb-21 15:00N 48°31' W 124°54'510.9
2018-Feb-21 14:30N 48°31' W 124°46'611.0
2018-Feb-21 14:00N 48°29' W 124°38'510.7
2018-Feb-21 13:30N 48°27' W 124°30'510.7
2018-Feb-21 13:00N 48°25' W 124°23'510.8
2018-Feb-21 12:30N 48°23' W 124°16'510.7
2018-Feb-21 12:00N 48°21' W 124°08'610.9
2018-Feb-21 11:30N 48°19' W 124°00'611.4
2018-Feb-21 10:58N 48°17' W 123°52'612.2
2018-Feb-21 10:30N 48°16' W 123°43'612.6
2018-Feb-21 10:00N 48°15' W 123°34'510.3
2018-Feb-21 09:30N 48°19' W 123°28'510.7
2018-Feb-21 09:00N 48°23' W 123°23'510.7
2018-Feb-21 08:30N 48°24' W 123°15'612.7
2018-Feb-21 08:00N 48°30' W 123°13'714.6
2018-Feb-21 07:31N 48°37' W 123°15'612.1
2018-Feb-21 07:00N 48°43' W 123°12'715.0
2018-Feb-21 06:30N 48°47' W 123°02'612.3
2018-Feb-21 05:59N 48°52' W 123°07'613.6
2018-Feb-21 05:30N 48°57' W 123°14'713.4
2018-Feb-21 05:00N 49°01' W 123°21'713.5
2018-Feb-21 04:30N 49°06' W 123°30'713.3
2018-Feb-21 03:58N 49°10' W 123°38'612.8
2018-Feb-21 03:28N 49°13' W 123°47'510.4
2018-Feb-21 02:58N 49°11' W 123°54'1 0.4
2018-Feb-20 23:18N 49°10' W 123°55'0 0.0
2018-Feb-20 19:30N 49°10' W 123°55'0 0.0
2018-Feb-20 19:00N 49°10' W 123°55'0 0.0
2018-Feb-20 15:24N 49°10' W 123°55'0 0.0
2018-Feb-20 13:18N 49°10' W 123°55'0 0.0
2018-Feb-20 10:30N 49°10' W 123°55'0 0.0
2018-Feb-20 07:00N 49°10' W 123°55'0 0.0
2018-Feb-19 16:54N 49°10' W 123°55'0 0.0
2018-Feb-19 16:24N 49°10' W 123°55'0 0.0
2018-Feb-17 20:06N 49°10' W 123°55'0 0.0
2018-Feb-17 20:00N 49°10' W 123°55'0 0.0
2018-Feb-16 18:18N 49°10' W 123°55'0 0.0
2018-Feb-16 14:06N 49°10' W 123°55'0 0.0
2018-Feb-16 13:00N 49°10' W 123°55'0 0.0
2018-Feb-16 12:18N 49°10' W 123°55'0 0.0
2018-Feb-16 10:48N 49°10' W 123°55'0 0.0
2018-Feb-16 10:30N 49°10' W 123°55'0 0.0
2018-Feb-16 08:24N 49°10' W 123°55'0 0.0
2018-Feb-16 07:54N 49°10' W 123°55'0 0.0
2018-Feb-16 07:30N 49°10' W 123°55'0 0.0
2018-Feb-16 06:48N 49°10' W 123°55'0 0.0
2018-Feb-16 05:42N 49°10' W 123°55'0 0.0
2018-Feb-16 04:24N 49°10' W 123°55'0 0.0
2018-Feb-16 03:54N 49°10' W 123°55'0 0.0
2018-Feb-16 01:24N 49°10' W 123°55'0 0.0
2018-Feb-16 00:24N 49°10' W 123°55'0 0.0
2018-Feb-15 15:30N 49°10' W 123°55'0 0.0
2018-Feb-15 14:54N 49°10' W 123°55'0 0.0
2018-Feb-15 13:12N 49°10' W 123°55'0 0.0
2018-Feb-15 11:42N 49°10' W 123°55'0 0.0
2018-Feb-15 09:30N 49°10' W 123°55'0 0.0
2018-Feb-13 20:48N 49°10' W 123°55'0 0.0
2018-Feb-13 18:03N 49°10' W 123°55'0 0.0
2018-Feb-13 13:00N 49°10' W 123°55'0 0.0
2018-Feb-13 12:13N 49°10' W 123°55'0 0.2
2018-Feb-13 11:59N 49°10' W 123°56'1 2.0
2018-Feb-13 11:27N 49°10' W 123°54'2 3.9
2018-Feb-13 11:00N 49°12' W 123°53'5 9.6
2018-Feb-13 10:30N 49°14' W 123°46'714.1
2018-Feb-13 10:00N 49°11' W 123°36'815.5
2018-Feb-13 09:30N 49°07' W 123°26'815.2
2018-Feb-13 09:01N 49°02' W 123°18'815.1
2018-Feb-13 08:30N 48°57' W 123°09'714.8
2018-Feb-13 08:00N 48°51' W 123°03'612.7
2018-Feb-13 07:30N 48°45' W 123°05'714.2
2018-Feb-13 07:01N 48°41' W 123°15'713.8
2018-Feb-13 06:30N 48°35' W 123°13'612.7
2018-Feb-13 06:01N 48°29' W 123°10'612.6
2018-Feb-13 05:30N 48°23' W 123°15'612.2
2018-Feb-13 05:01N 48°21' W 123°23'611.2
2018-Feb-13 04:29N 48°16' W 123°27'612.1
2018-Feb-13 04:00N 48°13' W 123°35'611.7
2018-Feb-13 03:29N 48°13' W 123°44'611.7
2018-Feb-13 02:57N 48°13' W 123°53'511.4
2018-Feb-13 02:30N 48°15' W 124°00'611.9
2018-Feb-13 02:00N 48°17' W 124°08'611.9
2018-Feb-13 01:30N 48°20' W 124°17'611.6
2018-Feb-13 01:01N 48°22' W 124°24'611.3
2018-Feb-13 00:30N 48°25' W 124°32'510.9
2018-Feb-13 00:00N 48°27' W 124°39'611.5
2018-Feb-12 23:30N 48°28' W 124°48'612.2
2018-Feb-12 23:00N 48°29' W 124°57'613.0
2018-Feb-12 22:30N 48°29' W 125°07'713.7
2018-Feb-12 22:00N 48°29' W 125°17'713.8
2018-Feb-12 21:30N 48°29' W 125°28'713.2
2018-Feb-12 21:00N 48°29' W 125°38'713.0
2018-Feb-12 20:30N 48°29' W 125°47'612.8
2018-Feb-12 20:00N 48°29' W 125°57'612.4
2018-Feb-12 19:30N 48°29' W 126°07'612.4
2018-Feb-12 19:00N 48°29' W 126°16'612.7
2018-Feb-12 18:30N 48°29' W 126°26'  
Track history (hours):
 
Tides and Currents Weather Stations Pressure Air Temp Water Temp Dewpoint Dewpoint Depression Visibility Wind Speed Wind Dir Waves Ship Positions

Dream Island

Last reported at 2018-Feb-21 21:21 UTC. Time now 2018-Feb-23 00:51 UTC.
Position N 48°31' W 126°32'.

Length 180 m; draft 10.1 m.

Type: Cargo ship. MMSI: 374721000.

Date/timePositionNaut miles runAvg speedWind from/ knotsBaromVisibWave heightAir tempDewpointWater temp
2018-Feb-21 21:21N 48°31' W 126°32'410.3
2018-Feb-21 21:00N 48°31' W 126°27'510.1
2018-Feb-21 20:30N 48°31' W 126°19'5 9.5
2018-Feb-21 20:00N 48°31' W 126°12'5 9.9
2018-Feb-21 19:30N 48°32' W 126°05'510.1
2018-Feb-21 19:00N 48°31' W 125°57'510.2
2018-Feb-21 18:30N 48°31' W 125°49'510.3
2018-Feb-21 18:00N 48°31' W 125°42'510.7
2018-Feb-21 17:30N 48°31' W 125°34'510.7
2018-Feb-21 17:00N 48°31' W 125°25'510.6
2018-Feb-21 16:30N 48°31' W 125°17'510.2
2018-Feb-21 16:00N 48°31' W 125°10'510.1
2018-Feb-21 15:30N 48°31' W 125°02'510.9
2018-Feb-21 15:00N 48°31' W 124°54'510.9
2018-Feb-21 14:30N 48°31' W 124°46'611.0
2018-Feb-21 14:00N 48°29' W 124°38'510.7
2018-Feb-21 13:30N 48°27' W 124°30'510.7
2018-Feb-21 13:00N 48°25' W 124°23'510.8
2018-Feb-21 12:30N 48°23' W 124°16'510.7
2018-Feb-21 12:00N 48°21' W 124°08'610.9
2018-Feb-21 11:30N 48°19' W 124°00'611.4
2018-Feb-21 10:58N 48°17' W 123°52'612.2
2018-Feb-21 10:30N 48°16' W 123°43'612.6
2018-Feb-21 10:00N 48°15' W 123°34'510.3
2018-Feb-21 09:30N 48°19' W 123°28'510.7
2018-Feb-21 09:00N 48°23' W 123°23'510.7
2018-Feb-21 08:30N 48°24' W 123°15'612.7
2018-Feb-21 08:00N 48°30' W 123°13'714.6
2018-Feb-21 07:31N 48°37' W 123°15'612.1
2018-Feb-21 07:00N 48°43' W 123°12'715.0
2018-Feb-21 06:30N 48°47' W 123°02'612.3
2018-Feb-21 05:59N 48°52' W 123°07'613.6
2018-Feb-21 05:30N 48°57' W 123°14'713.4
2018-Feb-21 05:00N 49°01' W 123°21'713.5
2018-Feb-21 04:30N 49°06' W 123°30'713.3
2018-Feb-21 03:58N 49°10' W 123°38'612.8
2018-Feb-21 03:28N 49°13' W 123°47'510.4
2018-Feb-21 02:58N 49°11' W 123°54'1 0.4
2018-Feb-20 23:18N 49°10' W 123°55'0 0.0
2018-Feb-20 19:30N 49°10' W 123°55'0 0.0
2018-Feb-20 19:00N 49°10' W 123°55'0 0.0
2018-Feb-20 15:24N 49°10' W 123°55'0 0.0
2018-Feb-20 13:18N 49°10' W 123°55'0 0.0
2018-Feb-20 10:30N 49°10' W 123°55'0 0.0
2018-Feb-20 07:00N 49°10' W 123°55'0 0.0
2018-Feb-19 16:54N 49°10' W 123°55'0 0.0
2018-Feb-19 16:24N 49°10' W 123°55'0 0.0
2018-Feb-17 20:06N 49°10' W 123°55'0 0.0
2018-Feb-17 20:00N 49°10' W 123°55'0 0.0
2018-Feb-16 18:18N 49°10' W 123°55'0 0.0
2018-Feb-16 14:06N 49°10' W 123°55'0 0.0
2018-Feb-16 13:00N 49°10' W 123°55'0 0.0
2018-Feb-16 12:18N 49°10' W 123°55'0 0.0
2018-Feb-16 10:48N 49°10' W 123°55'0 0.0
2018-Feb-16 10:30N 49°10' W 123°55'0 0.0
2018-Feb-16 08:24N 49°10' W 123°55'0 0.0
2018-Feb-16 07:54N 49°10' W 123°55'0 0.0
2018-Feb-16 07:30N 49°10' W 123°55'0 0.0
2018-Feb-16 06:48N 49°10' W 123°55'0 0.0
2018-Feb-16 05:42N 49°10' W 123°55'0 0.0
2018-Feb-16 04:24N 49°10' W 123°55'0 0.0
2018-Feb-16 03:54N 49°10' W 123°55'0 0.0
2018-Feb-16 01:24N 49°10' W 123°55'0 0.0
2018-Feb-16 00:24N 49°10' W 123°55'0 0.0
2018-Feb-15 15:30N 49°10' W 123°55'0 0.0
2018-Feb-15 14:54N 49°10' W 123°55'0 0.0
2018-Feb-15 13:12N 49°10' W 123°55'0 0.0
2018-Feb-15 11:42N 49°10' W 123°55'0 0.0
2018-Feb-15 09:30N 49°10' W 123°55'0 0.0
2018-Feb-13 20:48N 49°10' W 123°55'0 0.0
2018-Feb-13 18:03N 49°10' W 123°55'0 0.0
2018-Feb-13 13:00N 49°10' W 123°55'0 0.0
2018-Feb-13 12:13N 49°10' W 123°55'0 0.2
2018-Feb-13 11:59N 49°10' W 123°56'1 2.0
2018-Feb-13 11:27N 49°10' W 123°54'2 3.9
2018-Feb-13 11:00N 49°12' W 123°53'5 9.6
2018-Feb-13 10:30N 49°14' W 123°46'714.1
2018-Feb-13 10:00N 49°11' W 123°36'815.5
2018-Feb-13 09:30N 49°07' W 123°26'815.2
2018-Feb-13 09:01N 49°02' W 123°18'815.1
2018-Feb-13 08:30N 48°57' W 123°09'714.8
2018-Feb-13 08:00N 48°51' W 123°03'612.7
2018-Feb-13 07:30N 48°45' W 123°05'714.2
2018-Feb-13 07:01N 48°41' W 123°15'713.8
2018-Feb-13 06:30N 48°35' W 123°13'612.7
2018-Feb-13 06:01N 48°29' W 123°10'612.6
2018-Feb-13 05:30N 48°23' W 123°15'612.2
2018-Feb-13 05:01N 48°21' W 123°23'611.2
2018-Feb-13 04:29N 48°16' W 123°27'612.1
2018-Feb-13 04:00N 48°13' W 123°35'611.7
2018-Feb-13 03:29N 48°13' W 123°44'611.7
2018-Feb-13 02:57N 48°13' W 123°53'511.4
2018-Feb-13 02:30N 48°15' W 124°00'611.9
2018-Feb-13 02:00N 48°17' W 124°08'611.9
2018-Feb-13 01:30N 48°20' W 124°17'611.6
2018-Feb-13 01:01N 48°22' W 124°24'611.3
2018-Feb-13 00:30N 48°25' W 124°32'510.9
2018-Feb-13 00:00N 48°27' W 124°39'611.5
2018-Feb-12 23:30N 48°28' W 124°48'612.2
2018-Feb-12 23:00N 48°29' W 124°57'613.0
2018-Feb-12 22:30N 48°29' W 125°07'713.7
2018-Feb-12 22:00N 48°29' W 125°17'713.8
2018-Feb-12 21:30N 48°29' W 125°28'713.2
2018-Feb-12 21:00N 48°29' W 125°38'713.0
2018-Feb-12 20:30N 48°29' W 125°47'612.8
2018-Feb-12 20:00N 48°29' W 125°57'612.4
2018-Feb-12 19:30N 48°29' W 126°07'612.4
2018-Feb-12 19:00N 48°29' W 126°16'612.7
2018-Feb-12 18:30N 48°29' W 126°26'  

Dump ship's entire track history